Map

Track Data

SID SEASON NUMBER BASIN SUBBASIN NAME ISO_TIME NATURE LAT LON WMO_WIND WMO_PRES WMO_AGENCY TRACK_TYPE DIST2LAND LANDFALL IFLAG USA_AGENCY USA_ATCF_ID USA_LAT USA_LON USA_RECORD USA_STATUS USA_WIND USA_PRES USA_SSHS USA_R34_NE USA_R34_SE USA_R34_SW USA_R34_NW USA_R50_NE USA_R50_SE USA_R50_SW USA_R50_NW USA_R64_NE USA_R64_SE USA_R64_SW USA_R64_NW USA_POCI USA_ROCI USA_RMW USA_EYE TOKYO_LAT TOKYO_LON TOKYO_GRADE TOKYO_WIND TOKYO_PRES TOKYO_R50_DIR TOKYO_R50_LONG TOKYO_R50_SHORT TOKYO_R30_DIR TOKYO_R30_LONG TOKYO_R30_SHORT TOKYO_LAND CMA_LAT CMA_LON CMA_CAT CMA_WIND CMA_PRES HKO_LAT HKO_LON HKO_CAT HKO_WIND HKO_PRES NEWDELHI_LAT NEWDELHI_LON NEWDELHI_GRADE NEWDELHI_WIND NEWDELHI_PRES NEWDELHI_CI NEWDELHI_DP NEWDELHI_POCI REUNION_LAT REUNION_LON REUNION_TYPE REUNION_WIND REUNION_PRES REUNION_TNUM REUNION_CI REUNION_RMW REUNION_R34_NE REUNION_R34_SE REUNION_R34_SW REUNION_R34_NW REUNION_R50_NE REUNION_R50_SE REUNION_R50_SW REUNION_R50_NW REUNION_R64_NE REUNION_R64_SE REUNION_R64_SW REUNION_R64_NW BOM_LAT BOM_LON BOM_TYPE BOM_WIND BOM_PRES BOM_TNUM BOM_CI BOM_RMW BOM_R34_NE BOM_R34_SE BOM_R34_SW BOM_R34_NW BOM_R50_NE BOM_R50_SE BOM_R50_SW BOM_R50_NW BOM_R64_NE BOM_R64_SE BOM_R64_SW BOM_R64_NW BOM_ROCI BOM_POCI BOM_EYE BOM_POS_METHOD BOM_PRES_METHOD NADI_LAT NADI_LON NADI_CAT NADI_WIND NADI_PRES WELLINGTON_LAT WELLINGTON_LON WELLINGTON_WIND WELLINGTON_PRES DS824_LAT DS824_LON DS824_STAGE DS824_WIND DS824_PRES TD9636_LAT TD9636_LON TD9636_STAGE TD9636_WIND TD9636_PRES TD9635_LAT TD9635_LON TD9635_WIND TD9635_PRES TD9635_ROCI NEUMANN_LAT NEUMANN_LON NEUMANN_CLASS NEUMANN_WIND NEUMANN_PRES MLC_LAT MLC_LON MLC_CLASS MLC_WIND MLC_PRES USA_GUST BOM_GUST BOM_GUST_PER REUNION_GUST REUNION_GUST_PER USA_SEAHGT USA_SEARAD_NE USA_SEARAD_SE USA_SEARAD_SW USA_SEARAD_NW STORM_SPEED STORM_DIR
1950281N23270 1950 88 NA GM ITEM 1950-10-08 06:00:00 TS 23.3000 -90.4000 35 hurdat_atl main 240 240 O_____________ hurdat_atl AL091950 23.3000 -90.4000 TS 35 0 6 272
1950281N23270 1950 88 NA GM ITEM 1950-10-08 09:00:00 TS 23.3076 -90.7001 main 248 248 P_____________ AL091950 23.3076 -90.7001 TS 37 0 6 270
1950281N23270 1950 88 NA GM ITEM 1950-10-08 12:00:00 TS 23.3000 -91.0000 40 hurdat_atl main 256 256 O_____________ hurdat_atl AL091950 23.3000 -91.0000 TS 40 0 6 264
1950281N23270 1950 88 NA GM ITEM 1950-10-08 15:00:00 TS 23.2524 -91.2998 main 266 255 P_____________ AL091950 23.2524 -91.2998 TS 42 0 6 250
1950281N23270 1950 88 NA GM ITEM 1950-10-08 18:00:00 TS 23.1000 -91.6000 45 hurdat_atl main 260 251 O_____________ hurdat_atl AL091950 23.1000 -91.6000 TS 45 0 7 230
1950281N23270 1950 88 NA GM ITEM 1950-10-08 21:00:00 TS 22.7800 -91.9077 main 251 242 P_____________ AL091950 22.7800 -91.9077 TS 45 0 9 218
1950281N23270 1950 88 NA GM ITEM 1950-10-09 00:00:00 TS 22.4000 -92.2000 45 1002 hurdat_atl main 244 237 O_____________ hurdat_atl AL091950 22.4000 -92.2000 TS 45 1002 0 9 216
1950281N23270 1950 88 NA GM ITEM 1950-10-09 03:00:00 TS 22.0849 -92.4573 main 253 248 P_____________ AL091950 22.0849 -92.4573 TS 47 0 8 218
1950281N23270 1950 88 NA GM ITEM 1950-10-09 06:00:00 TS 21.8000 -92.7000 50 hurdat_atl main 260 260 O_____________ hurdat_atl AL091950 21.8000 -92.7000 TS 50 0 7 220
1950281N23270 1950 88 NA GM ITEM 1950-10-09 09:00:00 TS 21.5424 -92.9423 main 270 270 P_____________ AL091950 21.5424 -92.9423 TS 52 0 7 223
1950281N23270 1950 88 NA GM ITEM 1950-10-09 12:00:00 TS 21.3000 -93.2000 55 hurdat_atl main 294 281 O_____________ hurdat_atl AL091950 21.3000 -93.2000 TS 55 0 7 226
1950281N23270 1950 88 NA GM ITEM 1950-10-09 15:00:00 TS 21.0350 -93.5001 main 281 267 P_____________ AL091950 21.0350 -93.5001 TS 60 0 8 228
1950281N23270 1950 88 NA GM ITEM 1950-10-09 18:00:00 TS 20.8000 -93.8000 65 hurdat_atl main 271 241 O_____________ hurdat_atl AL091950 20.8000 -93.8000 HU 65 1 7 233
1950281N23270 1950 88 NA GM ITEM 1950-10-09 21:00:00 TS 20.6350 -94.0649 main 241 222 P_____________ AL091950 20.6350 -94.0649 HU 70 1 6 237
1950281N23270 1950 88 NA GM ITEM 1950-10-10 00:00:00 TS 20.5000 -94.3000 75 990 hurdat_atl main 222 203 O_____________ hurdat_atl AL091950 20.5000 -94.3000 HU 75 990 1 5 236
1950281N23270 1950 88 NA GM ITEM 1950-10-10 03:00:00 TS 20.3574 -94.5074 main 203 175 P_____________ AL091950 20.3574 -94.5074 HU 77 1 5 231
1950281N23270 1950 88 NA GM ITEM 1950-10-10 06:00:00 TS 20.2000 -94.7000 80 hurdat_atl main 175 148 O_____________ hurdat_atl AL091950 20.2000 -94.7000 HU 80 1 5 227
1950281N23270 1950 88 NA GM ITEM 1950-10-10 09:00:00 TS 20.0075 -94.9075 main 148 123 P_____________ AL091950 20.0075 -94.9075 HU 82 1 6 223
1950281N23270 1950 88 NA GM ITEM 1950-10-10 12:00:00 TS 19.8000 -95.1000 85 hurdat_atl main 123 100 O_____________ hurdat_atl AL091950 19.8000 -95.1000 HU 85 2 5 218
1950281N23270 1950 88 NA GM ITEM 1950-10-10 15:00:00 TS 19.5925 -95.2575 main 95 74 P_____________ AL091950 19.5925 -95.2575 HU 87 2 5 215
1950281N23270 1950 88 NA GM ITEM 1950-10-10 18:00:00 TS 19.4000 -95.4000 90 980 hurdat_atl main 74 59 O_____________ hurdat_atl AL091950 19.4000 -95.4000 HU 90 980 2 4 218
1950281N23270 1950 88 NA GM ITEM 1950-10-10 21:00:00 TS 19.2429 -95.5500 main 49 30 P_____________ AL091950 19.2429 -95.5500 HU 90 2 4 223
1950281N23270 1950 88 NA GM ITEM 1950-10-11 00:00:00 TS 19.1000 -95.7000 90 hurdat_atl main 30 10 O_____________ hurdat_atl AL091950 19.1000 -95.7000 HU 90 2 4 226
1950281N23270 1950 88 NA GM ITEM 1950-10-11 03:00:00 TS 18.9500 -95.8701 main 10 0 P_____________ AL091950 18.9500 -95.8701 HU 90 2 4 224
1950281N23270 1950 88 NA GM ITEM 1950-10-11 04:00:00 TS 18.9000 -95.9000 90 hurdat_atl main 0 0 O_____________ hurdat_atl AL091950 18.9000 -95.9000 L HU 90 2 3 192
1950281N23270 1950 88 NA GM ITEM 1950-10-11 06:00:00 TS 18.8000 -95.9000 75 hurdat_atl main 0 0 O_____________ hurdat_atl AL091950 18.8000 -95.9000 HU 75 1 3 189
1950281N23270 1950 88 NA NA ITEM 1950-10-11 09:00:00 TS 18.6500 -95.9449 main 0 0 P_____________ AL091950 18.6500 -95.9449 HU 57 0 3 197
1950281N23270 1950 88 NA NA ITEM 1950-10-11 12:00:00 TS 18.5000 -96.0000 40 hurdat_atl main 0 0 O_____________ hurdat_atl AL091950 18.5000 -96.0000 TS 40 0 3 192
1950281N23270 1950 88 NA NA ITEM 1950-10-11 15:00:00 TS 18.3500 -96.0142 main 0 0 P_____________ AL091950 18.3500 -96.0142 TS 32 -1 3 0
1950281N23270 1950 88 NA NA ITEM 1950-10-11 18:00:00 TS 18.2000 -96.0000 25 hurdat_atl main 0 O_____________ hurdat_atl AL091950 18.2000 -96.0000 TD 25 -1 3 0

About IBTrACS Database

This database is a web-friendly format of International Best Track Archive for Climate Stewardship (IBTrACS), a global best track data archive curated by NOAA dating back to 1842.

Updated: 2021-10-08